Time;durP1;ratioP1;P1;durP2;ratioP2;P2;SDS_P1;SDS_P2;PMS_P1;PMS_P2;Temp;Humidity;BMP_temperature;BMP_pressure;BME280_temperature;BME280_humidity;BME280_pressure;Samples;Min_cycle;Max_cycle;Signal;HPM_P1;HPM_P2
2022/07/22 00:01:12;;;;;;;8.98;4.90;;;;;;;23.66;70.46;100385.50;4975023;28;20023;-72
2022/07/22 00:03:38;;;;;;;7.70;4.43;;;;;;;23.53;70.86;100379.59;4975362;28;20106;-72
2022/07/22 00:06:03;;;;;;;8.93;5.38;;;;;;;23.52;71.06;100383.13;4956324;28;20488;-72
2022/07/22 00:08:29;;;;;;;10.30;4.60;;;;;;;23.55;70.96;100376.03;4975148;28;20069;-73
2022/07/22 00:10:54;;;;;;;12.60;5.28;;;;;;;23.59;71.05;100392.66;4975366;28;20043;-74
2022/07/22 00:13:20;;;;;;;7.93;5.00;;;;;;;23.67;70.99;100393.38;4975305;28;20085;-75
2022/07/22 00:15:46;;;;;;;9.93;4.78;;;;;;;23.61;71.16;100392.63;4974729;28;20026;-74
2022/07/22 00:18:12;;;;;;;11.40;5.63;;;;;;;23.46;71.43;100375.31;4972323;28;20029;-74
2022/07/22 00:20:37;;;;;;;12.30;5.28;;;;;;;23.54;70.65;100389.19;4973728;28;20480;-72
2022/07/22 00:23:03;;;;;;;8.75;4.85;;;;;;;23.44;70.62;100370.09;4976677;28;20018;-73
2022/07/22 00:25:31;;;;;;;8.52;5.50;;;;;;;23.44;71.68;100391.16;4973447;28;20465;-74
2022/07/22 00:27:57;;;;;;;8.70;4.77;;;;;;;23.35;71.45;100394.81;4973977;28;20449;-73
2022/07/22 00:30:22;;;;;;;9.90;4.55;;;;;;;23.22;71.95;100394.16;4971790;28;20281;-73
2022/07/22 00:32:48;;;;;;;9.95;4.95;;;;;;;23.14;71.59;100358.25;4973914;28;20117;-73
2022/07/22 00:35:13;;;;;;;9.52;4.93;;;;;;;23.31;71.74;100379.09;4973385;28;20035;-72
2022/07/22 00:37:39;;;;;;;11.45;4.88;;;;;;;23.46;72.21;100383.22;4974439;28;20150;-74
2022/07/22 00:40:05;;;;;;;11.15;5.18;;;;;;;23.62;71.77;100381.19;4973786;28;20077;-74
2022/07/22 00:42:31;;;;;;;12.98;5.22;;;;;;;23.72;71.92;100364.28;4974319;28;20027;-74
2022/07/22 00:44:57;;;;;;;16.15;5.68;;;;;;;23.86;73.22;100400.94;4974978;28;20027;-73
2022/07/22 00:47:23;;;;;;;19.30;6.57;;;;;;;23.90;73.60;100389.41;4974470;28;20043;-74
2022/07/22 00:49:49;;;;;;;18.77;6.50;;;;;;;23.86;73.76;100386.00;4974006;28;20037;-74
2022/07/22 00:52:15;;;;;;;18.50;6.97;;;;;;;23.70;74.42;100382.78;4974314;28;20370;-73
2022/07/22 00:54:41;;;;;;;16.50;6.03;;;;;;;23.69;74.08;100385.41;4956077;28;20043;-74
2022/07/22 00:57:06;;;;;;;12.40;5.68;;;;;;;23.63;74.42;100385.53;4974427;28;20039;-73
2022/07/22 00:59:33;;;;;;;15.10;5.97;;;;;;;23.66;74.63;100385.50;4974616;28;20450;-74
2022/07/22 01:01:59;;;;;;;18.25;5.80;;;;;;;23.74;73.88;100380.97;4955973;28;20118;-74
2022/07/22 01:04:25;;;;;;;20.38;6.50;;;;;;;23.66;74.33;100381.06;4960496;28;20102;-71
2022/07/22 01:06:50;;;;;;;19.45;6.53;;;;;;;23.55;76.21;100398.84;4974467;28;20027;-73
2022/07/22 01:09:16;;;;;;;16.98;7.00;;;;;;;23.57;75.78;100382.13;4975847;28;20049;-68
2022/07/22 01:11:42;;;;;;;25.45;6.90;;;;;;;23.37;75.80;100347.38;4980377;28;20181;-69
2022/07/22 01:14:08;;;;;;;16.42;6.00;;;;;;;23.65;75.13;100395.19;4974261;28;20035;-68
2022/07/22 01:16:34;;;;;;;26.27;6.30;;;;;;;23.53;76.32;100387.50;4974157;28;20038;-69
2022/07/22 01:19:00;;;;;;;22.35;6.63;;;;;;;23.37;75.81;100373.72;4971307;28;20046;-69
2022/07/22 01:21:26;;;;;;;13.93;5.50;;;;;;;23.06;74.92;100384.72;4974009;28;20029;-69
2022/07/22 01:23:51;;;;;;;9.77;5.50;;;;;;;23.05;74.79;100388.25;4973956;28;20027;-68
2022/07/22 01:26:17;;;;;;;11.25;4.97;;;;;;;22.83;75.24;100374.56;4973852;28;20027;-68
2022/07/22 01:28:43;;;;;;;12.32;5.13;;;;;;;22.48;75.21;100336.47;4973581;28;20035;-69
2022/07/22 01:31:09;;;;;;;12.63;5.75;;;;;;;22.73;75.04;100387.88;4970034;28;20038;-68
2022/07/22 01:33:35;;;;;;;9.98;4.80;;;;;;;22.67;74.98;100364.25;4970105;28;20046;-69
2022/07/22 01:36:02;;;;;;;10.60;5.45;;;;;;;22.84;74.97;100389.44;4973841;28;20531;-70
2022/07/22 01:38:27;;;;;;;13.55;5.40;;;;;;;22.74;75.40;100381.72;4973399;28;20503;-72
2022/07/22 01:40:53;;;;;;;10.45;5.57;;;;;;;22.63;75.59;100383.63;4973754;28;20110;-71
2022/07/22 01:43:20;;;;;;;11.07;4.93;;;;;;;22.69;75.04;100374.75;4973643;28;20027;-69
2022/07/22 01:45:48;;;;;;;10.13;5.55;;;;;;;22.62;75.41;100382.75;4973556;28;20069;-69
2022/07/22 01:48:14;;;;;;;11.82;5.57;;;;;;;22.28;75.57;100313.91;4973376;28;20086;-70
2022/07/22 01:50:41;;;;;;;14.48;5.80;;;;;;;22.34;77.02;100374.31;4973455;28;20026;-70
2022/07/22 01:53:07;;;;;;;8.63;5.40;;;;;;;22.32;76.61;100377.88;4939072;28;20042;-70
2022/07/22 01:55:33;;;;;;;14.40;5.60;;;;;;;22.20;76.89;100363.13;4973603;28;20031;-71
2022/07/22 01:57:58;;;;;;;12.57;5.82;;;;;;;21.75;79.66;100377.66;4973564;28;20057;-70
2022/07/22 02:00:24;;;;;;;8.32;5.38;;;;;;;21.39;80.29;100335.09;4972826;28;20075;-70
2022/07/22 02:02:50;;;;;;;10.52;5.57;;;;;;;21.79;79.97;100378.50;4973015;28;20039;-70
2022/07/22 02:05:15;;;;;;;10.48;5.57;;;;;;;21.77;79.86;100390.78;4972862;28;20037;-69
2022/07/22 02:07:41;;;;;;;12.75;5.63;;;;;;;21.38;81.14;100343.84;4972784;28;20062;-72
2022/07/22 02:10:07;;;;;;;10.25;5.78;;;;;;;21.51;81.97;100389.25;4972520;28;20061;-71
2022/07/22 02:12:33;;;;;;;12.20;5.93;;;;;;;21.43;82.18;100386.72;4972809;28;20147;-70
2022/07/22 02:14:58;;;;;;;12.48;6.70;;;;;;;21.05;83.10;100360.75;4972592;28;20031;-70
2022/07/22 02:17:25;;;;;;;10.32;5.25;;;;;;;20.92;85.30;100397.63;4972697;28;20054;-73
2022/07/22 02:19:50;;;;;;;9.60;5.20;;;;;;;20.54;87.33;100385.56;4972963;28;20093;-71
2022/07/22 02:22:16;;;;;;;11.40;5.60;;;;;;;20.52;88.09;100385.59;4972234;28;20465;-71
2022/07/22 02:24:42;;;;;;;9.85;5.15;;;;;;;20.85;86.75;100386.28;4972870;28;20026;-70
2022/07/22 02:27:07;;;;;;;10.77;5.32;;;;;;;21.04;86.26;100383.53;4972637;28;20027;-69
2022/07/22 02:29:33;;;;;;;11.35;5.50;;;;;;;21.20;85.58;100365.91;4972485;28;20027;-69
2022/07/22 02:31:59;;;;;;;10.23;5.78;;;;;;;21.12;84.80;100334.47;4970987;28;20509;-70
2022/07/22 02:34:24;;;;;;;11.55;5.18;;;;;;;21.42;84.99;100369.22;4972403;28;20106;-71
2022/07/22 02:36:50;;;;;;;13.60;5.88;;;;;;;21.39;83.72;100340.34;4972360;28;20023;-69
2022/07/22 02:39:16;;;;;;;9.05;5.78;;;;;;;21.58;82.28;100350.69;4972339;28;20457;-69
2022/07/22 02:41:41;;;;;;;15.23;6.25;;;;;;;21.24;82.86;100330.00;4972222;28;20038;-69
2022/07/22 02:44:06;;;;;;;12.23;6.18;;;;;;;21.42;83.68;100365.69;4972169;28;20010;-72
2022/07/22 02:46:32;;;;;;;9.02;5.55;;;;;;;21.36;83.47;100336.88;4971795;28;20847;-70
2022/07/22 02:48:58;;;;;;;9.85;5.75;;;;;;;21.31;84.74;100376.31;4972218;28;20077;-69
2022/07/22 02:51:24;;;;;;;11.18;5.43;;;;;;;20.98;85.48;100328.47;4972272;28;20030;-70
2022/07/22 02:53:49;;;;;;;10.73;6.22;;;;;;;20.91;88.04;100393.25;4969639;28;20038;-69
2022/07/22 02:56:15;;;;;;;13.85;8.30;;;;;;;20.54;88.85;100341.00;4971943;28;20445;-70
2022/07/22 02:58:41;;;;;;;13.05;8.35;;;;;;;20.79;88.18;100367.94;4972106;28;20027;-69
2022/07/22 03:01:06;;;;;;;10.75;7.15;;;;;;;21.01;87.94;100386.19;4971399;28;20114;-68
2022/07/22 03:03:32;;;;;;;12.25;6.40;;;;;;;21.05;87.23;100394.88;4972059;28;20027;-69
2022/07/22 03:05:58;;;;;;;10.13;5.82;;;;;;;20.78;87.71;100368.84;4972000;28;20039;-72
2022/07/22 03:08:25;;;;;;;14.38;7.03;;;;;;;20.77;87.59;100351.38;4971773;28;20054;-69
2022/07/22 03:10:50;;;;;;;12.15;6.10;;;;;;;21.07;86.28;100396.66;4970296;28;20039;-69
2022/07/22 03:13:16;;;;;;;10.35;5.72;;;;;;;21.20;85.39;100399.16;4971927;28;20042;-69
2022/07/22 03:15:41;;;;;;;16.00;6.32;;;;;;;20.66;85.79;100295.44;4971360;28;20030;-70
2022/07/22 03:18:07;;;;;;;15.50;6.18;;;;;;;21.29;85.58;100391.22;4971474;28;20109;-70
2022/07/22 03:20:33;;;;;;;13.45;6.60;;;;;;;21.36;85.26;100392.91;4971775;28;20073;-71
2022/07/22 03:22:58;;;;;;;15.25;6.20;;;;;;;21.44;84.93;100393.69;4972107;28;20026;-70
2022/07/22 03:25:24;;;;;;;15.35;6.50;;;;;;;21.22;84.53;100337.00;4971326;28;20460;-70
2022/07/22 03:27:50;;;;;;;16.77;6.20;;;;;;;21.67;83.44;100391.75;4971755;28;20742;-69
2022/07/22 03:30:16;;;;;;;19.80;7.20;;;;;;;21.70;83.09;100402.25;4971251;28;20031;-70
2022/07/22 03:32:46;;;;;;;14.80;6.45;;;;;;;21.64;83.02;100390.03;4971358;28;20035;-74
2022/07/22 03:35:15;;;;;;;14.30;6.13;;;;;;;21.63;82.86;100386.56;4971586;28;20132;-70
2022/07/22 03:37:40;;;;;;;11.30;6.05;;;;;;;21.54;83.29;100393.63;4971725;28;20034;-70
2022/07/22 03:40:06;;;;;;;13.68;6.93;;;;;;;21.39;84.61;100398.13;4971398;28;20035;-73
2022/07/22 03:42:32;;;;;;;15.90;7.18;;;;;;;20.85;85.31;100346.91;4971584;28;20117;-72
2022/07/22 03:44:58;;;;;;;13.00;6.88;;;;;;;21.20;85.73;100407.91;4971593;28;20030;-72
2022/07/22 03:47:23;;;;;;;15.70;7.32;;;;;;;21.17;84.56;100392.16;4971409;28;20030;-72
2022/07/22 03:49:49;;;;;;;17.52;7.65;;;;;;;21.33;84.52;100416.53;4971473;28;20038;-71
2022/07/22 03:52:15;;;;;;;10.68;6.40;;;;;;;21.43;83.69;100412.97;4971212;28;20505;-71
2022/07/22 03:54:42;;;;;;;13.00;5.72;;;;;;;21.62;81.97;100408.44;4971539;28;20086;-72
2022/07/22 03:57:07;;;;;;;15.32;6.65;;;;;;;21.72;81.67;100411.88;4971028;28;20575;-72
2022/07/22 03:59:33;;;;;;;13.02;7.13;;;;;;;21.71;81.97;100401.34;4970957;28;20054;-72
2022/07/22 04:01:58;;;;;;;16.48;7.32;;;;;;;21.89;80.99;100408.19;4971486;28;20027;-74
2022/07/22 04:04:23;;;;;;;12.52;6.22;;;;;;;21.98;80.52;100389.66;4971006;28;20026;-72
2022/07/22 04:06:51;;;;;;;13.15;5.78;;;;;;;22.14;80.43;100406.13;4971318;28;20477;-70
2022/07/22 04:09:17;;;;;;;10.75;6.57;;;;;;;22.32;79.76;100401.53;4971143;28;20047;-71
2022/07/22 04:11:42;;;;;;;14.45;6.22;;;;;;;22.41;78.79;100397.06;4970990;28;20033;-72
2022/07/22 04:14:08;;;;;;;15.38;7.10;;;;;;;22.43;78.61;100397.94;4970872;28;20035;-72
2022/07/22 04:16:34;;;;;;;13.65;6.40;;;;;;;22.08;78.44;100344.00;4970935;28;20041;-73
2022/07/22 04:19:01;;;;;;;11.80;6.43;;;;;;;22.44;78.49;100393.53;4971258;28;20031;-73
2022/07/22 04:21:27;;;;;;;12.73;7.07;;;;;;;22.54;78.47;100386.38;4970911;28;20030;-71
2022/07/22 04:23:52;;;;;;;9.85;6.13;;;;;;;22.26;79.69;100390.22;4971272;28;20035;-71
2022/07/22 04:26:18;;;;;;;11.43;6.60;;;;;;;22.23;80.08;100397.25;4970891;28;20019;-72
2022/07/22 04:28:44;;;;;;;13.35;6.40;;;;;;;22.19;80.46;100393.78;4971023;28;20382;-71
2022/07/22 04:31:09;;;;;;;9.95;6.10;;;;;;;22.24;81.08;100409.53;4971459;28;20042;-70
2022/07/22 04:33:35;;;;;;;10.75;6.97;;;;;;;22.07;81.19;100400.09;4971010;28;20393;-69
2022/07/22 04:36:00;;;;;;;13.27;6.60;;;;;;;21.81;83.43;100413.53;4971194;28;20034;-70
2022/07/22 04:38:26;;;;;;;11.75;6.05;;;;;;;21.88;83.13;100415.22;4970990;28;20066;-69
2022/07/22 04:40:51;;;;;;;17.48;7.78;;;;;;;21.83;81.98;100401.22;4970654;28;20042;-69
2022/07/22 04:43:17;;;;;;;16.48;8.00;;;;;;;21.91;81.97;100393.28;4970582;28;20026;-70
2022/07/22 04:45:42;;;;;;;27.88;16.38;;;;;;;22.00;82.09;100422.06;4973127;28;20030;-71
2022/07/22 04:48:08;;;;;;;20.65;14.77;;;;;;;21.88;82.33;100419.56;4974365;28;20050;-71
2022/07/22 04:50:36;;;;;;;19.30;12.30;;;;;;;21.97;80.97;100425.59;4974127;28;20500;-71
2022/07/22 04:53:01;;;;;;;18.17;10.88;;;;;;;21.89;81.44;100423.94;4972125;28;20514;-70
2022/07/22 04:55:46;;;;;;;17.10;8.63;;;;;;;22.07;81.09;100425.50;4973751;28;20058;-72
2022/07/22 04:58:12;;;;;;;11.65;7.90;;;;;;;22.20;81.16;100421.84;4952390;29;20063;-74
2022/07/22 05:00:37;;;;;;;18.05;8.93;;;;;;;22.25;79.39;100416.53;4952197;28;20516;-70
2022/07/22 05:03:03;;;;;;;14.35;8.05;;;;;;;22.32;79.75;100398.91;4952522;28;20031;-71
2022/07/22 05:05:28;;;;;;;10.85;6.97;;;;;;;22.50;77.78;100422.38;4952265;28;20106;-71
2022/07/22 05:07:54;;;;;;;16.55;7.03;;;;;;;22.60;77.39;100425.75;4951847;28;20548;-72
2022/07/22 05:10:19;;;;;;;16.00;6.93;;;;;;;22.70;77.56;100427.38;4951921;28;20055;-71
2022/07/22 05:12:45;;;;;;;15.45;6.85;;;;;;;22.72;78.32;100422.97;4950598;28;20130;-71
2022/07/22 05:15:10;;;;;;;15.05;8.15;;;;;;;22.53;78.88;100418.84;4951642;28;20030;-70
2022/07/22 05:17:36;;;;;;;13.38;8.13;;;;;;;22.66;79.01;100433.56;4951913;28;20823;-73
2022/07/22 05:20:04;;;;;;;13.75;10.63;;;;;;;22.87;78.34;100432.41;4946133;28;20118;-70
2022/07/22 05:22:29;;;;;;;17.80;10.25;;;;;;;22.81;79.55;100435.13;4938096;29;20046;-71
2022/07/22 05:24:54;;;;;;;13.23;7.95;;;;;;;22.94;81.21;100438.44;4931746;29;20035;-71
2022/07/22 05:27:20;;;;;;;17.52;8.25;;;;;;;22.90;81.52;100435.00;4938402;29;20073;-68
2022/07/22 05:29:45;;;;;;;15.27;8.70;;;;;;;23.01;79.98;100432.19;4967987;28;20556;-70
2022/07/22 05:32:11;;;;;;;13.27;7.30;;;;;;;23.20;79.36;100429.31;4978997;28;20038;-69
2022/07/22 05:34:36;;;;;;;14.85;7.03;;;;;;;23.39;79.24;100428.13;4976214;28;20023;-73
2022/07/22 05:37:02;;;;;;;10.75;6.72;;;;;;;23.25;78.92;100386.22;4972359;28;20022;-70
2022/07/22 05:39:27;;;;;;;11.20;6.63;;;;;;;23.48;78.74;100421.81;4973328;28;20062;-69
2022/07/22 05:41:53;;;;;;;11.85;7.07;;;;;;;23.61;78.49;100425.09;4991937;28;20031;-69
2022/07/22 05:44:18;;;;;;;11.18;6.97;;;;;;;23.73;78.62;100416.97;4961289;28;20050;-70
2022/07/22 05:46:43;;;;;;;14.85;6.90;;;;;;;23.79;77.68;100423.03;4973252;28;20026;-69
2022/07/22 05:49:09;;;;;;;12.98;7.22;;;;;;;23.31;81.49;100423.88;4973824;28;20065;-69
2022/07/22 05:51:34;;;;;;;12.85;6.70;;;;;;;22.95;80.90;100369.09;4973293;28;20102;-69
2022/07/22 05:54:02;;;;;;;10.88;7.03;;;;;;;23.40;82.09;100424.59;4973368;28;20034;-70
2022/07/22 05:56:27;;;;;;;9.57;5.75;;;;;;;23.57;80.11;100420.78;4972427;28;20030;-69
2022/07/22 05:58:53;;;;;;;12.15;6.63;;;;;;;23.85;80.55;100426.44;4973232;28;20393;-69
2022/07/22 06:01:18;;;;;;;13.18;6.35;;;;;;;23.93;79.06;100417.53;4938847;28;20098;-69
2022/07/22 06:03:43;;;;;;;11.48;6.10;;;;;;;23.89;79.03;100414.91;4973406;28;20146;-68
2022/07/22 06:06:09;;;;;;;14.68;6.18;;;;;;;24.10;78.80;100430.38;4982874;28;20497;-69
2022/07/22 06:08:36;;;;;;;9.35;6.10;;;;;;;24.25;77.91;100427.47;4992105;28;20038;-68
2022/07/22 06:11:01;;;;;;;9.23;5.70;;;;;;;24.41;78.27;100432.41;4992667;28;20493;-69
2022/07/22 06:13:27;;;;;;;11.23;6.40;;;;;;;24.51;76.81;100428.66;4992293;28;20037;-70
2022/07/22 06:15:53;;;;;;;10.10;5.88;;;;;;;24.61;76.05;100432.84;4992465;28;20030;-70
2022/07/22 06:18:18;;;;;;;13.88;5.93;;;;;;;24.75;75.49;100435.22;4992764;28;20066;-69
2022/07/22 06:20:44;;;;;;;9.88;6.28;;;;;;;24.74;74.98;100427.34;4992121;28;20030;-76
2022/07/22 06:23:09;;;;;;;16.00;6.20;;;;;;;24.49;75.88;100390.91;4992278;28;20022;-73
2022/07/22 06:25:35;;;;;;;10.57;6.00;;;;;;;24.64;76.18;100411.66;4992183;28;20101;-73
2022/07/22 06:28:00;;;;;;;11.85;5.80;;;;;;;24.81;76.03;100435.06;4957434;28;20137;-73
2022/07/22 06:30:26;;;;;;;11.13;6.20;;;;;;;24.81;77.11;100413.06;4992228;28;20401;-73
2022/07/22 06:32:52;;;;;;;10.10;5.97;;;;;;;24.96;75.66;100414.47;4991997;28;20121;-73
2022/07/22 06:35:18;;;;;;;12.77;6.45;;;;;;;25.07;74.21;100427.44;4991891;28;20112;-71
2022/07/22 06:37:43;;;;;;;11.00;5.60;;;;;;;25.11;75.59;100411.50;4991526;28;20485;-73
2022/07/22 06:40:09;;;;;;;11.23;6.18;;;;;;;25.25;75.65;100429.63;4990841;28;20097;-71
2022/07/22 06:42:35;;;;;;;9.02;6.03;;;;;;;25.32;73.08;100422.41;4973551;28;20082;-73
2022/07/22 06:45:00;;;;;;;21.92;7.40;;;;;;;25.08;72.01;100363.16;4991805;28;20062;-72
2022/07/22 06:47:25;;;;;;;9.93;7.00;;;;;;;25.19;73.42;100361.97;4987827;28;20037;-73
2022/07/22 06:49:51;;;;;;;13.02;6.57;;;;;;;25.48;73.62;100415.00;4992085;28;20022;-72
2022/07/22 06:52:16;;;;;;;12.80;7.30;;;;;;;25.26;72.02;100375.00;4991406;28;20116;-72
2022/07/22 06:54:42;;;;;;;10.82;6.38;;;;;;;25.56;74.07;100412.16;4991501;28;20038;-73
2022/07/22 06:57:07;;;;;;;9.77;6.50;;;;;;;25.64;74.15;100411.03;4982213;28;20034;-70
2022/07/22 06:59:32;;;;;;;14.48;6.82;;;;;;;25.40;73.94;100375.56;4975967;28;20038;-71
2022/07/22 07:01:58;;;;;;;11.38;6.53;;;;;;;25.79;71.85;100414.19;4979526;28;20105;-69
2022/07/22 07:04:24;;;;;;;9.32;6.63;;;;;;;25.60;72.73;100382.09;4978467;28;20030;-70
2022/07/22 07:06:49;;;;;;;15.10;8.27;;;;;;;25.64;71.84;100415.47;4978288;28;20478;-71
2022/07/22 07:09:14;;;;;;;13.95;8.80;;;;;;;25.67;69.50;100408.34;4980655;28;20039;-72
2022/07/22 07:11:40;;;;;;;17.80;7.25;;;;;;;25.80;70.63;100405.34;4979368;28;20050;-72
2022/07/22 07:14:05;;;;;;;11.10;6.93;;;;;;;25.99;70.08;100417.16;4989110;28;20045;-71
2022/07/22 07:16:31;;;;;;;14.98;9.05;;;;;;;25.73;70.04;100409.94;4991299;28;20403;-71
2022/07/22 07:18:56;;;;;;;14.80;8.85;;;;;;;25.82;68.54;100411.44;4991436;28;20026;-71
2022/07/22 07:21:22;;;;;;;14.52;9.50;;;;;;;25.97;67.95;100404.88;4991362;28;20103;-74
2022/07/22 07:23:48;;;;;;;21.63;9.40;;;;;;;26.18;66.17;100403.41;4991137;28;20101;-71
2022/07/22 07:26:13;;;;;;;13.25;10.30;;;;;;;26.16;65.17;100390.25;4991161;28;20030;-71
2022/07/22 07:28:39;;;;;;;15.63;11.32;;;;;;;25.99;66.09;100358.97;4991450;28;20030;-71
2022/07/22 07:31:05;;;;;;;17.27;12.60;;;;;;;26.33;62.50;100407.41;4991547;28;20034;-70
2022/07/22 07:33:30;;;;;;;18.30;12.63;;;;;;;26.40;61.92;100406.31;4991539;28;20054;-71
2022/07/22 07:35:56;;;;;;;17.75;13.50;;;;;;;26.59;59.94;100411.06;4991287;28;20469;-70
2022/07/22 07:38:21;;;;;;;18.63;13.70;;;;;;;26.47;61.02;100410.50;4991332;28;20093;-69
2022/07/22 07:40:47;;;;;;;17.45;12.82;;;;;;;26.32;61.43;100401.25;4991348;28;20433;-70
2022/07/22 07:43:12;;;;;;;14.63;12.10;;;;;;;25.83;60.77;100324.16;4991581;28;20543;-69
2022/07/22 07:45:38;;;;;;;17.15;12.80;;;;;;;26.30;62.09;100420.72;4991402;28;20038;-73
2022/07/22 07:48:03;;;;;;;18.05;14.02;;;;;;;26.36;60.70;100414.41;4991098;28;20037;-71
2022/07/22 07:50:29;;;;;;;19.48;12.73;;;;;;;26.52;60.61;100405.09;4991177;28;20038;-70
2022/07/22 07:52:55;;;;;;;16.10;12.35;;;;;;;26.63;60.12;100402.09;4991061;28;20077;-70
2022/07/22 07:55:21;;;;;;;14.38;12.40;;;;;;;26.82;59.05;100399.78;4991022;28;20035;-70
2022/07/22 07:57:48;;;;;;;19.88;13.70;;;;;;;26.94;58.60;100402.03;4991295;28;20374;-70
2022/07/22 08:00:15;;;;;;;15.75;12.05;;;;;;;26.68;58.92;100359.59;4991286;28;20469;-71
2022/07/22 08:02:41;;;;;;;15.65;12.02;;;;;;;27.09;59.05;100405.97;4991254;28;20026;-71
2022/07/22 08:05:09;;;;;;;18.33;12.60;;;;;;;27.33;57.19;100403.41;4991025;28;20041;-69
2022/07/22 08:07:34;;;;;;;19.40;13.02;;;;;;;27.36;57.75;100398.00;4991029;28;20080;-69
2022/07/22 08:10:01;;;;;;;16.77;12.55;;;;;;;27.26;56.31;100354.19;4991246;28;20050;-71
2022/07/22 08:12:26;;;;;;;15.75;11.68;;;;;;;27.67;57.79;100407.56;4990711;28;20414;-70
2022/07/22 08:14:52;;;;;;;18.17;11.75;;;;;;;27.76;57.11;100390.47;4991171;28;20041;-70
2022/07/22 08:17:17;;;;;;;16.98;11.50;;;;;;;27.40;57.63;100308.66;4972500;28;20573;-70
2022/07/22 08:19:43;;;;;;;15.98;11.27;;;;;;;27.90;57.76;100393.50;4991740;28;20033;-71
2022/07/22 08:22:08;;;;;;;14.75;11.55;;;;;;;27.93;57.81;100401.34;4994964;28;20026;-72
2022/07/22 08:24:34;;;;;;;15.40;10.70;;;;;;;27.93;58.15;100401.34;4994738;28;20038;-70
2022/07/22 08:27:00;;;;;;;19.65;11.57;;;;;;;28.04;56.63;100392.16;4994558;28;20037;-72
2022/07/22 08:29:25;;;;;;;15.05;10.88;;;;;;;28.15;56.70;100397.94;4958145;28;20134;-70
2022/07/22 08:31:51;;;;;;;14.45;10.63;;;;;;;28.30;56.09;100391.19;4955929;28;20035;-69
2022/07/22 08:34:16;;;;;;;16.67;11.60;;;;;;;28.46;55.70;100375.50;4978221;28;20625;-71
2022/07/22 08:36:42;;;;;;;20.52;12.10;;;;;;;28.31;54.08;100339.78;4984884;28;20037;-69
2022/07/22 08:39:07;;;;;;;15.85;10.68;;;;;;;28.69;52.36;100381.75;4992072;28;20041;-72
2022/07/22 08:41:36;;;;;;;13.63;10.07;;;;;;;28.36;51.45;100337.84;4978631;28;21179;-71
2022/07/22 08:44:03;;;;;;;13.75;9.13;;;;;;;28.77;50.55;100384.94;4982073;28;20030;-71
2022/07/22 08:46:29;;;;;;;12.63;9.27;;;;;;;28.79;50.83;100383.09;4983175;28;20038;-72
2022/07/22 08:48:55;;;;;;;18.15;9.98;;;;;;;28.89;50.97;100384.44;4984622;28;20030;-72
2022/07/22 08:51:21;;;;;;;11.07;9.90;;;;;;;29.06;50.54;100382.91;4982670;28;20027;-72
2022/07/22 08:53:46;;;;;;;13.82;9.25;;;;;;;29.20;51.29;100383.16;4966899;28;20109;-70
2022/07/22 08:56:13;;;;;;;11.70;8.43;;;;;;;29.23;48.54;100363.56;4964448;28;20102;-70
2022/07/22 08:58:40;;;;;;;14.70;8.85;;;;;;;29.31;50.38;100357.94;4963749;28;20499;-72
2022/07/22 09:01:10;;;;;;;11.13;8.50;;;;;;;28.85;50.05;100291.66;4965535;28;20030;-72
2022/07/22 09:03:50;;;;;;;13.93;9.63;;;;;;;29.47;49.67;100372.31;4964366;28;20111;-70
2022/07/22 09:06:17;;;;;;;12.52;9.43;;;;;;;29.45;50.03;100371.50;4965331;28;20177;-72
2022/07/22 09:09:00;;;;;;;12.25;8.85;;;;;;;29.59;50.38;100365.59;4977523;28;20535;-71
2022/07/22 09:11:28;;;;;;;13.48;9.02;;;;;;;29.72;50.53;100362.38;4993685;28;20057;-71
2022/07/22 09:13:55;;;;;;;14.40;9.52;;;;;;;29.93;51.38;100372.06;4993245;28;20548;-72
2022/07/22 09:16:43;;;;;;;13.85;9.77;;;;;;;30.01;52.67;100374.41;4952244;29;20046;-71
2022/07/22 09:19:09;;;;;;;13.95;9.68;;;;;;;30.12;52.16;100364.13;4914119;29;20507;-70
2022/07/22 09:21:36;;;;;;;13.23;8.90;;;;;;;30.41;47.92;100371.69;4914076;29;20530;-73
2022/07/22 09:24:06;;;;;;;13.27;9.05;;;;;;;30.56;47.12;100365.63;4914118;29;20044;-71
2022/07/22 09:26:34;;;;;;;12.63;9.23;;;;;;;30.65;45.33;100359.00;4913883;29;20044;-71
2022/07/22 09:29:00;;;;;;;11.02;8.35;;;;;;;30.80;43.87;100360.91;4914043;29;20071;-71
2022/07/22 09:31:31;;;;;;;13.95;8.10;;;;;;;31.00;43.13;100363.53;4913668;29;20185;-71
2022/07/22 09:33:57;;;;;;;11.55;8.45;;;;;;;31.02;42.61;100356.28;4913770;29;20052;-70
2022/07/22 09:36:23;;;;;;;10.65;8.45;;;;;;;31.16;45.91;100351.16;4913742;29;20044;-71
2022/07/22 09:38:49;;;;;;;12.25;8.63;;;;;;;31.35;44.10;100352.88;4913778;29;20047;-71
2022/07/22 09:41:15;;;;;;;15.23;8.77;;;;;;;31.35;42.94;100327.06;4913756;29;20519;-71
2022/07/22 09:43:40;;;;;;;11.82;8.70;;;;;;;31.61;44.63;100359.53;4913664;29;20032;-70
2022/07/22 09:46:06;;;;;;;12.10;8.27;;;;;;;31.51;41.29;100323.59;4913726;29;20039;-72
2022/07/22 09:48:31;;;;;;;12.07;8.45;;;;;;;31.81;40.98;100345.13;4951435;29;20058;-71
2022/07/22 09:50:58;;;;;;;12.32;8.02;;;;;;;31.72;42.57;100334.97;4986762;28;20034;-70
2022/07/22 09:53:28;;;;;;;13.32;8.02;;;;;;;31.78;40.46;100345.31;4992618;28;20390;-72
2022/07/22 09:55:54;;;;;;;14.38;8.15;;;;;;;31.85;43.46;100345.84;4991669;28;20039;-71
2022/07/22 09:58:19;;;;;;;12.60;8.05;;;;;;;32.00;43.96;100353.03;4992661;28;20041;-70
2022/07/22 10:00:45;;;;;;;14.43;8.30;;;;;;;32.07;40.81;100329.50;4991357;28;20041;-70
2022/07/22 10:03:16;;;;;;;10.00;7.45;;;;;;;32.37;39.37;100334.97;4992686;28;20405;-71
2022/07/22 10:05:42;;;;;;;13.60;7.70;;;;;;;32.48;39.51;100317.47;4992866;28;20026;-72
2022/07/22 10:08:09;;;;;;;11.77;7.60;;;;;;;32.74;37.08;100337.34;4992153;28;20037;-71
2022/07/22 10:10:37;;;;;;;15.30;7.97;;;;;;;32.77;36.72;100333.66;4991039;28;20429;-72
2022/07/22 10:13:05;;;;;;;9.70;6.82;;;;;;;32.73;37.14;100340.97;4992682;28;20034;-73
2022/07/22 10:15:32;;;;;;;15.05;8.18;;;;;;;32.68;37.34;100338.53;4992207;28;20034;-71
2022/07/22 10:18:00;;;;;;;11.77;7.55;;;;;;;32.61;38.63;100307.78;4992412;28;20035;-73
2022/07/22 10:20:28;;;;;;;25.58;7.95;;;;;;;32.96;39.89;100338.78;4992402;28;20041;-73
2022/07/22 10:23:01;;;;;;;11.95;7.30;;;;;;;32.98;37.23;100339.56;4992333;28;20061;-73
2022/07/22 10:25:49;;;;;;;12.75;7.90;;;;;;;32.98;36.37;100331.53;4992314;28;20026;-73
2022/07/22 10:28:21;;;;;;;8.90;6.97;;;;;;;33.09;37.36;100325.53;4991960;28;20125;-73
2022/07/22 10:30:47;;;;;;;11.35;6.85;;;;;;;33.30;37.43;100329.63;4992210;28;20022;-74
2022/07/22 10:33:19;;;;;;;10.23;6.80;;;;;;;33.27;36.59;100286.97;4973556;28;20520;-75
2022/07/22 10:35:58;;;;;;;9.45;7.18;;;;;;;33.54;36.85;100287.09;4991879;28;20030;-73
2022/07/22 10:38:25;;;;;;;14.30;7.07;;;;;;;33.98;33.89;100324.59;4991865;28;20489;-74
2022/07/22 10:40:50;;;;;;;9.80;6.90;;;;;;;34.16;34.23;100333.28;4992314;28;20070;-73
2022/07/22 10:43:41;;;;;;;18.80;6.68;;;;;;;34.12;32.81;100329.06;4991219;28;20065;-72
2022/07/22 10:46:07;;;;;;;10.95;6.63;;;;;;;34.28;33.06;100318.22;4991649;28;20023;-73
2022/07/22 10:48:36;;;;;;;11.60;6.57;;;;;;;34.23;34.84;100275.63;4988711;28;20449;-75
2022/07/22 10:51:12;;;;;;;13.02;7.93;;;;;;;34.51;32.62;100316.75;4972407;28;20060;-73
2022/07/22 10:53:52;;;;;;;11.07;7.70;;;;;;;34.76;35.50;100310.59;4972450;28;20101;-73
2022/07/22 10:56:35;;;;;;;11.85;7.40;;;;;;;34.92;31.95;100310.44;4990750;28;20026;-73
2022/07/22 10:59:14;;;;;;;11.10;6.43;;;;;;;35.08;32.89;100309.38;4957052;28;20042;-73
2022/07/22 11:01:48;;;;;;;7.05;5.70;;;;;;;35.17;31.41;100295.34;4991623;28;20038;-72
2022/07/22 11:04:17;;;;;;;13.30;6.82;;;;;;;35.23;29.79;100286.88;4991206;28;20030;-78
2022/07/22 11:06:44;;;;;;;7.03;6.20;;;;;;;34.94;31.79;100249.50;4991632;28;20027;-76
2022/07/22 11:09:14;;;;;;;11.27;6.05;;;;;;;35.30;31.52;100292.66;4991257;28;20415;-76
2022/07/22 11:11:49;;;;;;;;;;;;;;;35.50;33.75;100291.28;4981921;28;20038;-72
2022/07/22 11:14:26;;;;;;;10.32;6.25;;;;;;;35.37;30.34;100253.72;4978254;28;19920;-72